Time;durP1;ratioP1;P1;durP2;ratioP2;P2;SDS_P1;SDS_P2;PMS_P1;PMS_P2;Temp;Humidity;BMP_temperature;BMP_pressure;BME280_temperature;BME280_humidity;BME280_pressure;Samples;Min_cycle;Max_cycle;Signal;HPM_P1;HPM_P2
2022/12/22 08:17:16;;;;;;;;;17.00;14.00;;;;;;;;113616;1215;23534;-64
2022/12/22 08:19:44;;;;;;;;;18.00;13.00;;;;;;;;114573;1206;23557;-65
2022/12/22 08:22:13;;;;;;;;;14.50;12.50;;;;;;;;114622;1209;25355;-67
2022/12/22 08:24:41;;;;;;;;;16.50;12.50;;;;;;;;114606;1209;24804;-63
2022/12/22 08:27:13;;;;;;;;;13.00;13.00;;;;;;;;114589;1209;24698;-61
2022/12/22 08:29:45;;;;;;;;;16.00;12.00;;;;;;;;114609;1212;24840;-67
2022/12/22 08:32:14;;;;;;;;;10.00;10.00;;;;;;;;114375;1209;25523;-61
2022/12/22 08:34:43;;;;;;;;;11.00;11.00;;;;;;;;114427;1212;25248;-62
2022/12/22 08:37:14;;;;;;;;;13.50;10.00;;;;;;;;114847;1200;25519;-62
2022/12/22 08:39:44;;;;;;;;;15.00;11.00;;;;;;;;114874;1196;25338;-60
2022/12/22 08:42:16;;;;;;;;;14.00;11.00;;;;;;;;114920;1199;25720;-63
2022/12/22 08:44:46;;;;;;;;;19.67;13.67;;;;;;;;114908;1205;25227;-64
2022/12/22 08:47:14;;;;;;;;;15.00;11.50;;;;;;;;114836;1205;25036;-65
2022/12/22 08:49:44;;;;;;;;;18.00;13.00;;;;;;;;114936;1206;24686;-68
2022/12/22 08:52:13;;;;;;;;;16.00;12.00;;;;;;;;114927;1203;25282;-69
2022/12/22 08:54:46;;;;;;;;;18.50;13.50;;;;;;;;114840;1208;25429;-67
2022/12/22 08:57:15;;;;;;;;;16.50;14.00;;;;;;;;114839;1200;25311;-68
2022/12/22 08:59:43;;;;;;;;;14.50;12.00;;;;;;;;114937;1196;24940;-68
2022/12/22 09:02:11;;;;;;;;;19.00;15.00;;;;;;;;114876;1198;25549;-68
2022/12/22 09:04:40;;;;;;;;;18.00;13.50;;;;;;;;114970;1200;25538;-68
2022/12/22 09:07:09;;;;;;;;;20.00;15.00;;;;;;;;114902;1206;24967;-68
2022/12/22 09:09:38;;;;;;;;;19.00;16.50;;;;;;;;114879;1199;24751;-68
2022/12/22 09:12:07;;;;;;;;;16.00;13.00;;;;;;;;114844;1203;25557;-68
2022/12/22 09:14:35;;;;;;;;;15.00;12.25;;;;;;;;114872;1203;25023;-68
2022/12/22 09:17:04;;;;;;;;;17.00;14.00;;;;;;;;114896;1200;24894;-68
2022/12/22 09:19:33;;;;;;;;;20.00;12.00;;;;;;;;114861;1199;25989;-69
2022/12/22 09:22:02;;;;;;;;;9.00;7.00;;;;;;;;114944;1207;25626;-69
2022/12/22 09:24:30;;;;;;;;;16.50;8.00;;;;;;;;114945;1207;24647;-68
2022/12/22 09:26:59;;;;;;;;;15.00;13.00;;;;;;;;114964;1200;24979;-69
2022/12/22 09:29:27;;;;;;;;;13.67;10.33;;;;;;;;114936;1197;25375;-68
2022/12/22 09:31:56;;;;;;;;;15.67;10.33;;;;;;;;114922;1204;24828;-69
2022/12/22 09:34:24;;;;;;;;;10.00;7.67;;;;;;;;114905;1200;26275;-68
2022/12/22 09:36:53;;;;;;;;;13.50;12.50;;;;;;;;114913;1200;24990;-68
2022/12/22 09:39:21;;;;;;;;;13.00;12.00;;;;;;;;114887;1208;24935;-68
2022/12/22 09:41:56;;;;;;;;;5.33;4.33;;;;;;;;114958;1203;24739;-68
2022/12/22 09:44:40;;;;;;;;;12.00;11.00;;;;;;;;114867;1204;24870;-68
2022/12/22 09:47:37;;;;;;;;;14.00;12.00;;;;;;;;114912;1207;25384;-68
2022/12/22 09:50:11;;;;;;;;;16.00;11.50;;;;;;;;114859;1207;25340;-68
2022/12/22 09:52:47;;;;;;;;;16.50;13.50;;;;;;;;114906;1204;24696;-68
2022/12/22 09:55:38;;;;;;;;;12.33;11.67;;;;;;;;114931;1203;25680;-68
2022/12/22 09:58:28;;;;;;;;;12.00;10.50;;;;;;;;114942;1206;25204;-68
2022/12/22 10:01:22;;;;;;;;;10.00;10.00;;;;;;;;114868;1200;24954;-68
2022/12/22 10:04:23;;;;;;;;;13.00;9.00;;;;;;;;114866;1208;24889;-68
2022/12/22 10:07:00;;;;;;;;;15.33;11.67;;;;;;;;114809;1208;24768;-68
2022/12/22 10:09:30;;;;;;;;;19.50;13.00;;;;;;;;114882;1205;25689;-68
2022/12/22 10:12:21;;;;;;;;;12.00;7.00;;;;;;;;114875;1200;25088;-68
2022/12/22 10:14:51;;;;;;;;;16.50;12.50;;;;;;;;114873;1206;25361;-68
2022/12/22 10:17:27;;;;;;;;;15.00;12.00;;;;;;;;114868;1204;24852;-68
2022/12/22 10:20:20;;;;;;;;;11.50;11.50;;;;;;;;114904;1203;25446;-68
2022/12/22 10:22:54;;;;;;;;;12.00;11.50;;;;;;;;114836;1203;24911;-68
2022/12/22 10:25:37;;;;;;;;;15.00;12.00;;;;;;;;114844;1206;25179;-68
2022/12/22 10:28:30;;;;;;;;;15.00;12.00;;;;;;;;114887;1208;25525;-68
2022/12/22 10:31:10;;;;;;;;;14.00;12.00;;;;;;;;114844;1201;25600;-68
2022/12/22 10:33:39;;;;;;;;;16.50;12.00;;;;;;;;114873;1206;25594;-68
2022/12/22 10:36:20;;;;;;;;;16.00;10.00;;;;;;;;114863;1206;25021;-68
2022/12/22 10:38:55;;;;;;;;;12.50;12.00;;;;;;;;114862;1197;24863;-68
2022/12/22 10:41:27;;;;;;;;;16.00;14.00;;;;;;;;114881;1201;25201;-68
2022/12/22 10:43:58;;;;;;;;;10.50;10.50;;;;;;;;114813;1205;25560;-68
2022/12/22 10:46:43;;;;;;;;;11.00;11.00;;;;;;;;114876;1200;25331;-68
2022/12/22 10:49:33;;;;;;;;;13.00;10.00;;;;;;;;114797;1207;25292;-68
2022/12/22 10:52:30;;;;;;;;;14.00;13.00;;;;;;;;114830;1208;24853;-69
2022/12/22 10:55:17;;;;;;;;;16.50;13.00;;;;;;;;114828;1208;24959;-67
2022/12/22 10:57:46;;;;;;;;;11.00;9.00;;;;;;;;114829;1206;25341;-64
2022/12/22 11:00:29;;;;;;;;;11.00;11.00;;;;;;;;114852;1200;24939;-63
2022/12/22 11:03:00;;;;;;;;;17.00;15.00;;;;;;;;114853;1200;25602;-63
2022/12/22 11:05:31;;;;;;;;;15.50;12.50;;;;;;;;114863;1204;25330;-64
2022/12/22 11:08:16;;;;;;;;;12.50;12.50;;;;;;;;114807;1208;24917;-65
2022/12/22 11:10:56;;;;;;;;;17.50;12.00;;;;;;;;114926;1206;24779;-60
2022/12/22 11:13:50;;;;;;;;;11.00;10.00;;;;;;;;114847;1208;25006;-61
2022/12/22 11:16:19;;;;;;;;;13.00;12.00;;;;;;;;114880;1200;25479;-61
2022/12/22 11:18:50;;;;;;;;;14.00;13.00;;;;;;;;114773;1200;25399;-63
2022/12/22 11:21:36;;;;;;;;;16.50;14.50;;;;;;;;114902;1206;25699;-65
2022/12/22 11:24:44;;;;;;;;;13.00;10.00;;;;;;;;114946;1200;25348;-63
2022/12/22 11:27:47;;;;;;;;;9.00;7.00;;;;;;;;114750;1206;25725;-66
2022/12/22 11:30:20;;;;;;;;;28.00;23.00;;;;;;;;114794;1204;25271;-64
2022/12/22 11:32:57;;;;;;;;;21.00;17.00;;;;;;;;114897;1203;24975;-65
2022/12/22 11:35:29;;;;;;;;;17.00;15.00;;;;;;;;115765;1200;24684;-65
2022/12/22 11:38:05;;;;;;;;;23.00;17.00;;;;;;;;115284;1204;25399;-63
2022/12/22 11:40:49;;;;;;;;;26.50;21.00;;;;;;;;114822;1196;25604;-63
2022/12/22 11:43:37;;;;;;;;;19.33;14.33;;;;;;;;114818;1200;25258;-64
2022/12/22 11:46:06;;;;;;;;;15.00;12.00;;;;;;;;114814;1199;25419;-65
2022/12/22 11:49:29;;;;;;;;;15.50;11.00;;;;;;;;114908;1202;25514;-64
2022/12/22 11:52:21;;;;;;;;;16.00;13.00;;;;;;;;114624;1207;24814;-65
2022/12/22 11:55:08;;;;;;;;;15.33;13.00;;;;;;;;114893;1208;25191;-65
2022/12/22 11:58:10;;;;;;;;;23.00;14.00;;;;;;;;114892;1197;25368;-65
2022/12/22 12:01:07;;;;;;;;;15.00;12.50;;;;;;;;114861;1200;24711;-65
2022/12/22 12:03:55;;;;;;;;;14.00;12.00;;;;;;;;114816;1208;25377;-64
2022/12/22 12:06:47;;;;;;;;;20.00;16.00;;;;;;;;114776;1207;25240;-65
2022/12/22 12:09:24;;;;;;;;;16.00;12.50;;;;;;;;114888;1200;24843;-64
2022/12/22 12:12:10;;;;;;;;;15.00;13.00;;;;;;;;114817;1203;24832;-65
2022/12/22 12:14:45;;;;;;;;;17.75;13.00;;;;;;;;114823;1206;25213;-64
2022/12/22 12:17:36;;;;;;;;;15.00;12.00;;;;;;;;114871;1200;25415;-63
2022/12/22 12:20:28;;;;;;;;;11.50;10.00;;;;;;;;114876;1203;25399;-63
2022/12/22 12:22:57;;;;;;;;;18.67;13.00;;;;;;;;114831;1200;25040;-62
2022/12/22 12:25:41;;;;;;;;;20.00;15.00;;;;;;;;114921;1197;24997;-64
2022/12/22 12:28:41;;;;;;;;;11.00;11.00;;;;;;;;114891;1200;25127;-64
2022/12/22 12:31:11;;;;;;;;;16.00;15.00;;;;;;;;114889;1203;24861;-65
2022/12/22 12:33:50;;;;;;;;;16.00;9.50;;;;;;;;114942;1200;25122;-66
2022/12/22 12:36:30;;;;;;;;;20.00;14.00;;;;;;;;114864;1203;25505;-65
2022/12/22 12:39:43;;;;;;;;;14.00;13.00;;;;;;;;114886;1200;25561;-64
2022/12/22 12:42:29;;;;;;;;;15.00;11.00;;;;;;;;114608;1205;25488;-65
2022/12/22 12:45:01;;;;;;;;;14.00;13.00;;;;;;;;114635;1206;24674;-65
2022/12/22 12:47:34;;;;;;;;;18.00;15.00;;;;;;;;114777;1208;25637;-65
2022/12/22 12:50:31;;;;;;;;;15.00;11.00;;;;;;;;114939;1202;24923;-65
2022/12/22 12:53:09;;;;;;;;;18.00;15.50;;;;;;;;114890;1200;25202;-67
2022/12/22 12:55:37;;;;;;;;;17.67;15.00;;;;;;;;114919;1196;24990;-63
2022/12/22 12:58:11;;;;;;;;;23.50;21.50;;;;;;;;114847;1208;24907;-62
2022/12/22 13:00:42;;;;;;;;;20.50;13.00;;;;;;;;114826;1208;24940;-63
2022/12/22 13:03:28;;;;;;;;;13.00;9.00;;;;;;;;114809;1207;25526;-63
2022/12/22 13:06:44;;;;;;;;;17.50;15.00;;;;;;;;114914;1203;25267;-63
2022/12/22 13:09:19;;;;;;;;;21.00;15.00;;;;;;;;114895;1203;24988;-64
2022/12/22 13:12:47;;;;;;;;;14.00;12.00;;;;;;;;114885;1200;24852;-64
2022/12/22 13:15:37;;;;;;;;;15.50;13.00;;;;;;;;114740;1205;25338;-64
2022/12/22 13:18:38;;;;;;;;;21.33;14.67;;;;;;;;114880;1201;25775;-64
2022/12/22 13:21:21;;;;;;;;;21.00;16.00;;;;;;;;114823;1205;24865;-64
2022/12/22 13:24:10;;;;;;;;;12.00;9.00;;;;;;;;114849;1208;24741;-64
2022/12/22 13:27:01;;;;;;;;;17.67;15.00;;;;;;;;114871;1208;25047;-64
2022/12/22 13:29:44;;;;;;;;;17.00;14.00;;;;;;;;114867;1203;24843;-64
2022/12/22 13:32:33;;;;;;;;;16.00;14.00;;;;;;;;114928;1203;25192;-62
2022/12/22 13:35:18;;;;;;;;;15.50;14.50;;;;;;;;114900;1206;25218;-62
2022/12/22 13:37:59;;;;;;;;;16.50;15.50;;;;;;;;114878;1200;25454;-64
2022/12/22 13:40:40;;;;;;;;;20.00;15.00;;;;;;;;114840;1206;25454;-63
2022/12/22 13:43:16;;;;;;;;;17.00;16.00;;;;;;;;114917;1200;24887;-64
2022/12/22 13:45:48;;;;;;;;;17.00;14.00;;;;;;;;114901;1208;25564;-64
2022/12/22 13:48:21;;;;;;;;;20.00;17.00;;;;;;;;114829;1203;24785;-63
2022/12/22 13:50:52;;;;;;;;;10.00;10.00;;;;;;;;114881;1207;25692;-64
2022/12/22 13:53:41;;;;;;;;;15.00;14.50;;;;;;;;114882;1206;25588;-64
2022/12/22 13:56:43;;;;;;;;;16.00;10.00;;;;;;;;114883;1204;25766;-64
2022/12/22 13:59:41;;;;;;;;;22.50;17.50;;;;;;;;114901;1197;25521;-64
2022/12/22 14:02:11;;;;;;;;;17.00;16.00;;;;;;;;114821;1208;25000;-64
2022/12/22 14:04:42;;;;;;;;;21.00;15.00;;;;;;;;114897;1203;25462;-63
2022/12/22 14:07:17;;;;;;;;;20.50;13.00;;;;;;;;114920;1208;24934;-62
2022/12/22 14:09:50;;;;;;;;;16.50;13.00;;;;;;;;114884;1200;25411;-63
2022/12/22 14:12:22;;;;;;;;;17.50;15.00;;;;;;;;114890;1205;25280;-63
2022/12/22 14:14:52;;;;;;;;;18.00;15.00;;;;;;;;114854;1200;24871;-63
2022/12/22 14:17:33;;;;;;;;;15.00;13.00;;;;;;;;114830;1200;25418;-62
2022/12/22 14:20:15;;;;;;;;;18.00;15.00;;;;;;;;114874;1203;25171;-63
2022/12/22 14:22:49;;;;;;;;;14.00;13.00;;;;;;;;114893;1203;25185;-62
2022/12/22 14:25:24;;;;;;;;;19.00;16.00;;;;;;;;114933;1203;24815;-63
2022/12/22 14:27:54;;;;;;;;;19.00;14.50;;;;;;;;114948;1199;25024;-63
2022/12/22 14:30:26;;;;;;;;;15.00;10.00;;;;;;;;114924;1203;25463;-63
2022/12/22 14:33:31;;;;;;;;;17.00;13.00;;;;;;;;114920;1197;25438;-63
2022/12/22 14:36:05;;;;;;;;;18.00;14.50;;;;;;;;114940;1203;25524;-63
2022/12/22 14:38:39;;;;;;;;;14.00;11.67;;;;;;;;114886;1203;25390;-63
2022/12/22 14:44:13;;;;;;;;;12.00;12.00;;;;;;;;114835;1202;25489;-63
2022/12/22 14:46:42;;;;;;;;;14.67;11.67;;;;;;;;114920;1203;25540;-63
2022/12/22 14:49:13;;;;;;;;;13.00;11.50;;;;;;;;114861;1203;24926;-64
2022/12/22 14:51:42;;;;;;;;;16.00;15.00;;;;;;;;114888;1208;25429;-64
2022/12/22 14:54:19;;;;;;;;;20.00;14.00;;;;;;;;114955;1207;25354;-66
2022/12/22 14:56:49;;;;;;;;;14.50;12.00;;;;;;;;114881;1196;25677;-66
2022/12/22 14:59:27;;;;;;;;;16.50;11.50;;;;;;;;114912;1203;25341;-64
2022/12/22 15:02:16;;;;;;;;;10.00;10.00;;;;;;;;114927;1194;24750;-63
2022/12/22 15:04:46;;;;;;;;;12.33;11.67;;;;;;;;114888;1205;24755;-63
2022/12/22 15:07:19;;;;;;;;;18.67;12.33;;;;;;;;114945;1200;24861;-64
2022/12/22 15:10:09;;;;;;;;;16.33;14.00;;;;;;;;114924;1201;24894;-63
2022/12/22 15:12:44;;;;;;;;;24.00;14.00;;;;;;;;114892;1203;25518;-63
2022/12/22 15:15:17;;;;;;;;;;;;;;;;;;114803;1200;24893;-63
2022/12/22 15:17:53;;;;;;;;;9.00;9.00;;;;;;;;114903;1200;25567;-63
2022/12/22 15:20:24;;;;;;;;;14.00;11.33;;;;;;;;114915;1207;25390;-63
2022/12/22 15:22:53;;;;;;;;;20.75;17.00;;;;;;;;114829;1197;25479;-65
2022/12/22 15:25:23;;;;;;;;;17.00;15.00;;;;;;;;114945;1199;24867;-63
2022/12/22 15:27:51;;;;;;;;;16.67;13.00;;;;;;;;114909;1204;24761;-63
2022/12/22 15:30:21;;;;;;;;;13.25;11.25;;;;;;;;114949;1200;25431;-63
2022/12/22 15:32:56;;;;;;;;;24.50;14.00;;;;;;;;114929;1208;25435;-63
2022/12/22 15:35:30;;;;;;;;;14.00;9.00;;;;;;;;114878;1200;25124;-63
2022/12/22 15:37:59;;;;;;;;;17.00;13.00;;;;;;;;114837;1201;25456;-64
2022/12/22 15:40:28;;;;;;;;;19.00;13.50;;;;;;;;114824;1200;25198;-63
2022/12/22 15:42:57;;;;;;;;;15.00;14.33;;;;;;;;114886;1200;25025;-63
2022/12/22 15:45:25;;;;;;;;;12.00;11.00;;;;;;;;114832;1205;24703;-63
2022/12/22 15:47:54;;;;;;;;;19.50;16.50;;;;;;;;114846;1208;25218;-62
2022/12/22 15:50:26;;;;;;;;;16.00;14.00;;;;;;;;114932;1205;25443;-64
2022/12/22 15:53:04;;;;;;;;;23.00;16.50;;;;;;;;114850;1200;24916;-63
2022/12/22 15:55:34;;;;;;;;;17.00;15.00;;;;;;;;114892;1200;25127;-63
2022/12/22 15:58:03;;;;;;;;;14.00;12.00;;;;;;;;114814;1200;25378;-64
2022/12/22 16:00:31;;;;;;;;;18.33;13.33;;;;;;;;114870;1203;25033;-65
2022/12/22 16:03:00;;;;;;;;;18.33;14.00;;;;;;;;114885;1200;25273;-64
2022/12/22 16:05:29;;;;;;;;;18.00;16.00;;;;;;;;114843;1201;25774;-62
2022/12/22 16:07:58;;;;;;;;;15.50;14.50;;;;;;;;114833;1200;25526;-63
2022/12/22 16:10:28;;;;;;;;;15.67;12.67;;;;;;;;114838;1203;24990;-63
2022/12/22 16:12:59;;;;;;;;;15.00;14.00;;;;;;;;114871;1206;25310;-63
2022/12/22 16:15:30;;;;;;;;;15.00;12.00;;;;;;;;114859;1208;24802;-63
2022/12/22 16:18:00;;;;;;;;;17.50;14.00;;;;;;;;114854;1207;25234;-63
2022/12/22 16:20:34;;;;;;;;;13.00;12.00;;;;;;;;114914;1200;25079;-63
2022/12/22 16:23:06;;;;;;;;;19.50;15.00;;;;;;;;114832;1202;25074;-62
2022/12/22 16:25:37;;;;;;;;;18.50;15.50;;;;;;;;114855;1194;25416;-63
2022/12/22 16:28:05;;;;;;;;;17.00;13.50;;;;;;;;114946;1205;25399;-63
2022/12/22 16:30:34;;;;;;;;;14.00;12.50;;;;;;;;114788;1205;25530;-63
2022/12/22 16:33:02;;;;;;;;;15.00;12.00;;;;;;;;114818;1205;24970;-64
2022/12/22 16:35:31;;;;;;;;;13.00;12.00;;;;;;;;114866;1208;25526;-63
2022/12/22 16:38:00;;;;;;;;;16.00;16.00;;;;;;;;114878;1208;25253;-63
2022/12/22 16:40:30;;;;;;;;;20.00;15.33;;;;;;;;114880;1203;26347;-63
2022/12/22 16:43:02;;;;;;;;;14.00;13.00;;;;;;;;114885;1204;25760;-63
2022/12/22 16:45:48;;;;;;;;;17.00;13.50;;;;;;;;114827;1200;25029;-63
2022/12/22 16:48:28;;;;;;;;;14.00;11.00;;;;;;;;114889;1206;25198;-63
2022/12/22 16:50:57;;;;;;;;;23.00;14.50;;;;;;;;114928;1198;25171;-63
2022/12/22 16:53:27;;;;;;;;;17.00;12.50;;;;;;;;114744;1200;24785;-63
2022/12/22 16:56:00;;;;;;;;;16.50;15.50;;;;;;;;114820;1196;24932;-63
2022/12/22 16:58:28;;;;;;;;;23.00;14.00;;;;;;;;114895;1208;24788;-63
2022/12/22 17:00:57;;;;;;;;;20.00;14.00;;;;;;;;114834;1203;24910;-63
2022/12/22 17:03:27;;;;;;;;;21.00;9.00;;;;;;;;114795;1197;26196;-63
2022/12/22 17:05:58;;;;;;;;;17.00;17.00;;;;;;;;114855;1199;25526;-62
2022/12/22 17:08:31;;;;;;;;;14.50;13.50;;;;;;;;114851;1199;25505;-63
2022/12/22 17:11:02;;;;;;;;;12.00;6.50;;;;;;;;114819;1198;24879;-64
2022/12/22 17:13:37;;;;;;;;;15.50;11.00;;;;;;;;114877;1200;25346;-63
2022/12/22 17:16:16;;;;;;;;;18.00;12.67;;;;;;;;114781;1202;25567;-63
2022/12/22 17:18:45;;;;;;;;;15.50;10.00;;;;;;;;114882;1207;24742;-63
2022/12/22 17:21:16;;;;;;;;;21.33;13.33;;;;;;;;114778;1205;24951;-63
2022/12/22 17:23:50;;;;;;;;;17.00;10.00;;;;;;;;114829;1197;25349;-63
2022/12/22 17:26:23;;;;;;;;;19.75;15.00;;;;;;;;114791;1193;25420;-62
2022/12/22 17:28:51;;;;;;;;;15.00;12.00;;;;;;;;114785;1205;24865;-63
2022/12/22 17:31:22;;;;;;;;;15.50;12.50;;;;;;;;114858;1203;25237;-63
2022/12/22 17:33:53;;;;;;;;;22.50;15.00;;;;;;;;114883;1201;25564;-63
2022/12/22 17:36:32;;;;;;;;;14.00;13.00;;;;;;;;114901;1200;25251;-64
2022/12/22 17:39:25;;;;;;;;;17.67;12.33;;;;;;;;114767;1198;25156;-63
2022/12/22 17:41:59;;;;;;;;;15.50;12.00;;;;;;;;114807;1194;25536;-64
2022/12/22 17:44:27;;;;;;;;;17.00;13.33;;;;;;;;114829;1198;25203;-63
2022/12/22 17:46:56;;;;;;;;;14.00;10.33;;;;;;;;114792;1204;25429;-64
2022/12/22 17:49:25;;;;;;;;;18.50;14.50;;;;;;;;114851;1200;24791;-64
2022/12/22 17:51:54;;;;;;;;;15.00;15.00;;;;;;;;114843;1208;25206;-63
2022/12/22 17:54:26;;;;;;;;;17.00;12.00;;;;;;;;114920;1198;24983;-70
2022/12/22 17:57:02;;;;;;;;;20.00;15.00;;;;;;;;114825;1206;25120;-65
2022/12/22 17:59:31;;;;;;;;;12.00;12.00;;;;;;;;114784;1199;25343;-63
2022/12/22 18:02:00;;;;;;;;;22.00;15.50;;;;;;;;114773;1208;25159;-63
2022/12/22 18:04:28;;;;;;;;;21.50;11.00;;;;;;;;114791;1200;24987;-68
2022/12/22 18:06:57;;;;;;;;;16.50;12.50;;;;;;;;114816;1200;25434;-64
2022/12/22 18:09:26;;;;;;;;;18.67;12.67;;;;;;;;114882;1198;25374;-62
2022/12/22 18:11:54;;;;;;;;;13.50;11.50;;;;;;;;114807;1200;25136;-62
2022/12/22 18:14:23;;;;;;;;;17.50;14.00;;;;;;;;114870;1200;25106;-62
2022/12/22 18:16:52;;;;;;;;;18.50;13.50;;;;;;;;114824;1208;25279;-61
2022/12/22 18:19:20;;;;;;;;;16.00;13.00;;;;;;;;114847;1205;25431;-62
2022/12/22 18:21:48;;;;;;;;;25.00;14.00;;;;;;;;114877;1207;25118;-63
2022/12/22 18:24:18;;;;;;;;;16.33;13.67;;;;;;;;114895;1208;25420;-63
2022/12/22 18:26:47;;;;;;;;;16.00;9.00;;;;;;;;114903;1200;25706;-61
2022/12/22 18:29:17;;;;;;;;;21.50;16.00;;;;;;;;114856;1200;24807;-65
2022/12/22 18:31:46;;;;;;;;;21.00;16.00;;;;;;;;114919;1200;25435;-64
2022/12/22 18:34:14;;;;;;;;;18.00;13.50;;;;;;;;114954;1203;24813;-66
2022/12/22 18:36:44;;;;;;;;;18.00;13.00;;;;;;;;114913;1204;25204;-61
2022/12/22 18:39:17;;;;;;;;;17.00;15.00;;;;;;;;114882;1202;25718;-61
2022/12/22 18:41:46;;;;;;;;;20.00;14.00;;;;;;;;114890;1200;25687;-61
2022/12/22 18:44:18;;;;;;;;;12.50;7.00;;;;;;;;114925;1203;25520;-61
2022/12/22 18:46:47;;;;;;;;;18.00;11.50;;;;;;;;114853;1193;24830;-61
2022/12/22 18:49:16;;;;;;;;;17.33;16.00;;;;;;;;114867;1200;24726;-64
2022/12/22 18:51:44;;;;;;;;;15.00;14.00;;;;;;;;114852;1197;25667;-66
2022/12/22 18:54:35;;;;;;;;;19.00;14.00;;;;;;;;114823;1196;25263;-61
2022/12/22 18:57:11;;;;;;;;;16.67;14.00;;;;;;;;114840;1200;24733;-63
2022/12/22 18:59:40;;;;;;;;;19.00;17.00;;;;;;;;114907;1201;25725;-61
2022/12/22 19:02:22;;;;;;;;;16.00;11.00;;;;;;;;114871;1200;25451;-62
2022/12/22 19:04:50;;;;;;;;;19.00;16.50;;;;;;;;114877;1208;25005;-62
2022/12/22 19:07:23;;;;;;;;;17.00;15.50;;;;;;;;114833;1208;25499;-62
2022/12/22 19:09:51;;;;;;;;;15.33;14.33;;;;;;;;114882;1208;24913;-62
2022/12/22 19:12:21;;;;;;;;;19.00;15.00;;;;;;;;114848;1203;25503;-62
2022/12/22 19:14:53;;;;;;;;;16.00;13.00;;;;;;;;114835;1199;25644;-63
2022/12/22 19:17:25;;;;;;;;;24.50;18.00;;;;;;;;114868;1200;25550;-62
2022/12/22 19:19:53;;;;;;;;;;;;;;;;;;114793;1204;25707;-63
2022/12/22 19:22:22;;;;;;;;;19.00;12.50;;;;;;;;114830;1197;24836;-61
2022/12/22 19:24:50;;;;;;;;;17.00;14.00;;;;;;;;114818;1206;25105;-63
2022/12/22 19:27:23;;;;;;;;;17.00;12.00;;;;;;;;114797;1196;24756;-63
2022/12/22 19:29:54;;;;;;;;;20.00;17.00;;;;;;;;114827;1203;25224;-62
2022/12/22 19:32:50;;;;;;;;;24.50;17.50;;;;;;;;114827;1200;24876;-63
2022/12/22 19:35:23;;;;;;;;;22.67;14.00;;;;;;;;114723;1204;25135;-62
2022/12/22 19:37:52;;;;;;;;;19.00;15.00;;;;;;;;114800;1208;25516;-62
2022/12/22 19:40:25;;;;;;;;;16.00;14.00;;;;;;;;114798;1204;25393;-62
2022/12/22 19:42:56;;;;;;;;;19.33;15.00;;;;;;;;114763;1200;25811;-64
2022/12/22 19:45:26;;;;;;;;;16.00;14.00;;;;;;;;114832;1203;25722;-62
2022/12/22 19:47:56;;;;;;;;;16.50;15.00;;;;;;;;114816;1208;24956;-62
2022/12/22 19:50:28;;;;;;;;;17.00;14.00;;;;;;;;114799;1206;24892;-63
2022/12/22 19:53:00;;;;;;;;;17.00;15.50;;;;;;;;114891;1200;25127;-63
2022/12/22 19:55:32;;;;;;;;;13.50;8.50;;;;;;;;114877;1202;25133;-63
2022/12/22 19:58:01;;;;;;;;;19.00;14.50;;;;;;;;114747;1207;25511;-63
2022/12/22 20:00:29;;;;;;;;;19.00;14.50;;;;;;;;114924;1206;25006;-62
2022/12/22 20:02:58;;;;;;;;;15.00;11.50;;;;;;;;114897;1203;25310;-63
2022/12/22 20:05:29;;;;;;;;;18.00;14.00;;;;;;;;114845;1205;24997;-62
2022/12/22 20:08:00;;;;;;;;;15.00;12.50;;;;;;;;114814;1203;24897;-63
2022/12/22 20:10:30;;;;;;;;;18.00;13.67;;;;;;;;114800;1200;24987;-63
2022/12/22 20:13:05;;;;;;;;;20.00;12.50;;;;;;;;114916;1200;25478;-62
2022/12/22 20:15:36;;;;;;;;;20.50;15.50;;;;;;;;114882;1207;25291;-62
2022/12/22 20:18:22;;;;;;;;;18.33;12.00;;;;;;;;114919;1203;24878;-63
2022/12/22 20:21:02;;;;;;;;;20.50;16.00;;;;;;;;114859;1200;24989;-63
2022/12/22 20:23:34;;;;;;;;;15.00;15.00;;;;;;;;114907;1200;24997;-62
2022/12/22 20:26:05;;;;;;;;;15.00;14.00;;;;;;;;114891;1207;25633;-62
2022/12/22 20:28:38;;;;;;;;;19.00;15.00;;;;;;;;114908;1208;25198;-62
2022/12/22 20:31:09;;;;;;;;;16.00;15.00;;;;;;;;114828;1208;25615;-64
2022/12/22 20:33:37;;;;;;;;;13.50;13.50;;;;;;;;114805;1206;25355;-64
2022/12/22 20:36:22;;;;;;;;;22.00;17.00;;;;;;;;114902;1200;25184;-63
2022/12/22 20:38:51;;;;;;;;;22.50;16.50;;;;;;;;114858;1207;25442;-63
2022/12/22 20:41:20;;;;;;;;;19.00;14.00;;;;;;;;114843;1200;25667;-62
2022/12/22 20:43:49;;;;;;;;;17.50;14.50;;;;;;;;114879;1208;25549;-63
2022/12/22 20:46:26;;;;;;;;;20.67;15.33;;;;;;;;114925;1201;25020;-63
2022/12/22 20:48:57;;;;;;;;;24.00;16.50;;;;;;;;114864;1203;25144;-64
2022/12/22 20:51:30;;;;;;;;;17.00;12.00;;;;;;;;114903;1199;25246;-63
2022/12/22 20:53:59;;;;;;;;;19.00;17.00;;;;;;;;114888;1206;24793;-62
2022/12/22 20:56:37;;;;;;;;;19.67;15.00;;;;;;;;114852;1196;25130;-63
2022/12/22 20:59:11;;;;;;;;;19.00;15.67;;;;;;;;114885;1203;24962;-63
2022/12/22 21:01:39;;;;;;;;;21.00;16.00;;;;;;;;114796;1208;25588;-63
2022/12/22 21:04:08;;;;;;;;;16.00;15.00;;;;;;;;114810;1208;25396;-63
2022/12/22 21:06:38;;;;;;;;;17.00;14.00;;;;;;;;114774;1207;25489;-62
2022/12/22 21:09:06;;;;;;;;;19.00;14.00;;;;;;;;114862;1206;25492;-62
2022/12/22 21:11:35;;;;;;;;;20.00;15.67;;;;;;;;114958;1196;25029;-62
2022/12/22 21:14:03;;;;;;;;;21.00;16.00;;;;;;;;114909;1203;25666;-62
2022/12/22 21:16:33;;;;;;;;;16.50;13.50;;;;;;;;114976;1208;25142;-62
2022/12/22 21:19:02;;;;;;;;;18.00;15.00;;;;;;;;114950;1208;25647;-62
2022/12/22 21:21:31;;;;;;;;;24.00;18.00;;;;;;;;114857;1208;25721;-63
2022/12/22 21:23:59;;;;;;;;;21.00;16.00;;;;;;;;114911;1199;25355;-63
2022/12/22 21:26:42;;;;;;;;;13.50;12.00;;;;;;;;114902;1200;25554;-61
2022/12/22 21:29:20;;;;;;;;;17.00;15.00;;;;;;;;114915;1200;25070;-62
2022/12/22 21:31:48;;;;;;;;;17.67;15.00;;;;;;;;114872;1200;25243;-62
2022/12/22 21:34:17;;;;;;;;;20.00;15.50;;;;;;;;114852;1193;25579;-62
2022/12/22 21:36:49;;;;;;;;;12.50;11.00;;;;;;;;114957;1203;25174;-62
2022/12/22 21:39:40;;;;;;;;;22.50;19.50;;;;;;;;114776;1206;25234;-63
2022/12/22 21:42:17;;;;;;;;;19.50;13.00;;;;;;;;114870;1200;25193;-63
2022/12/22 21:44:46;;;;;;;;;16.50;15.00;;;;;;;;114854;1208;25507;-62
2022/12/22 21:47:17;;;;;;;;;16.00;15.00;;;;;;;;114905;1203;24755;-61
2022/12/22 21:49:45;;;;;;;;;22.00;17.00;;;;;;;;114853;1206;25421;-63
2022/12/22 21:52:14;;;;;;;;;16.50;15.00;;;;;;;;114874;1206;25153;-63
2022/12/22 21:54:42;;;;;;;;;22.50;17.00;;;;;;;;114880;1208;25471;-63
2022/12/22 21:57:15;;;;;;;;;18.33;14.33;;;;;;;;114823;1201;25354;-63
2022/12/22 21:59:43;;;;;;;;;18.00;13.50;;;;;;;;114892;1199;24902;-63
2022/12/22 22:02:17;;;;;;;;;14.00;13.00;;;;;;;;114812;1206;25125;-63
2022/12/22 22:04:46;;;;;;;;;16.00;14.00;;;;;;;;114815;1206;25630;-68
2022/12/22 22:07:21;;;;;;;;;14.00;12.00;;;;;;;;114897;1206;25248;-71
2022/12/22 22:09:50;;;;;;;;;21.00;15.00;;;;;;;;114857;1207;24671;-64
2022/12/22 22:12:35;;;;;;;;;14.00;11.00;;;;;;;;114808;1206;25234;-63
2022/12/22 22:15:06;;;;;;;;;18.00;13.00;;;;;;;;114836;1201;25326;-64
2022/12/22 22:17:34;;;;;;;;;18.00;16.00;;;;;;;;114881;1206;25101;-63
2022/12/22 22:20:05;;;;;;;;;22.00;15.00;;;;;;;;114856;1201;26150;-62
2022/12/22 22:22:33;;;;;;;;;23.33;15.00;;;;;;;;114802;1196;24926;-63
2022/12/22 22:25:03;;;;;;;;;17.33;15.33;;;;;;;;114797;1205;26380;-63
2022/12/22 22:27:32;;;;;;;;;16.50;12.00;;;;;;;;114880;1207;24920;-63
2022/12/22 22:30:01;;;;;;;;;14.00;14.00;;;;;;;;114828;1206;25329;-63
2022/12/22 22:32:30;;;;;;;;;17.50;14.00;;;;;;;;114872;1205;25023;-63
2022/12/22 22:34:59;;;;;;;;;15.00;11.00;;;;;;;;114879;1208;25365;-62
2022/12/22 22:37:27;;;;;;;;;19.50;16.50;;;;;;;;114883;1204;25098;-62
2022/12/22 22:39:56;;;;;;;;;19.00;13.00;;;;;;;;114809;1208;25634;-62
2022/12/22 22:42:25;;;;;;;;;13.50;10.50;;;;;;;;114653;1207;25585;-63
2022/12/22 22:44:53;;;;;;;;;12.00;7.00;;;;;;;;114875;1207;24871;-62
2022/12/22 22:47:22;;;;;;;;;23.00;19.00;;;;;;;;114893;1207;25168;-61
2022/12/22 22:49:50;;;;;;;;;24.00;16.50;;;;;;;;114886;1206;25078;-61
2022/12/22 22:52:19;;;;;;;;;17.67;14.67;;;;;;;;114895;1200;25286;-61
2022/12/22 22:54:47;;;;;;;;;20.67;16.00;;;;;;;;114876;1206;25415;-63
2022/12/22 22:57:16;;;;;;;;;14.00;14.00;;;;;;;;114817;1208;25296;-62
2022/12/22 22:59:44;;;;;;;;;22.00;15.00;;;;;;;;114906;1208;24920;-62
2022/12/22 23:02:14;;;;;;;;;14.33;12.67;;;;;;;;114849;1206;26406;-62
2022/12/22 23:04:43;;;;;;;;;17.00;12.00;;;;;;;;114876;1203;25329;-62
2022/12/22 23:07:12;;;;;;;;;21.50;17.00;;;;;;;;114900;1201;25245;-63
2022/12/22 23:09:41;;;;;;;;;19.50;13.50;;;;;;;;114834;1200;25466;-63